createdAt,value
2023-10-16T00:01:12.405Z,102288.78
2023-10-16T00:03:43.083Z,102279.81
2023-10-16T00:06:14.160Z,102285.19
2023-10-16T00:08:49.366Z,102274.72
2023-10-16T00:11:24.333Z,102275.56
2023-10-16T00:13:52.528Z,102283.72
2023-10-16T00:16:22.715Z,102281.66
2023-10-16T00:18:52.187Z,102277.28
2023-10-16T00:21:20.148Z,102273.16
2023-10-16T00:23:47.333Z,102281.22
2023-10-16T00:26:20.960Z,102273.44
2023-10-16T00:29:18.375Z,102280.81
2023-10-16T00:31:54.137Z,102275.84
2023-10-16T00:34:21.891Z,102275.34
2023-10-16T00:36:51.549Z,102269.94
2023-10-16T00:39:21.075Z,102266.13
2023-10-16T00:41:48.188Z,102262.72
2023-10-16T00:44:20.191Z,102246.34
2023-10-16T00:46:50.652Z,102266.53
2023-10-16T00:49:19.800Z,102268.81
2023-10-16T00:51:48.507Z,102256.47
2023-10-16T00:54:27.838Z,102267.97
2023-10-16T00:56:58.698Z,102261.75
2023-10-16T00:59:25.776Z,102251.63
2023-10-16T01:02:07.637Z,102267.78
2023-10-16T01:04:35.116Z,102256.06
2023-10-16T01:07:06.902Z,102269.53
2023-10-16T01:09:37.718Z,102260.44
2023-10-16T01:12:07.990Z,102263.03
2023-10-16T01:14:38.604Z,102268.81
2023-10-16T01:17:10.170Z,102263.63
2023-10-16T01:19:37.770Z,102272.31
2023-10-16T01:22:05.019Z,102266.63
2023-10-16T01:24:34.908Z,102266.34
2023-10-16T01:27:24.813Z,102266.22
2023-10-16T01:29:53.837Z,102263.94
2023-10-16T01:32:21.189Z,102263.88
2023-10-16T01:34:48.164Z,102251.13
2023-10-16T01:37:19.198Z,102253.94
2023-10-16T01:39:50.073Z,102257.03
2023-10-16T01:42:19.049Z,102258.03
2023-10-16T01:44:46.244Z,102251.41
2023-10-16T01:47:17.369Z,102252.03
2023-10-16T01:49:45.682Z,102248.50
2023-10-16T01:52:13.306Z,102253.34
2023-10-16T01:54:41.842Z,102235.00
2023-10-16T01:57:11.975Z,102244.19
2023-10-16T01:59:45.304Z,102244.94
2023-10-16T02:02:14.244Z,102241.81
2023-10-16T02:04:41.970Z,102237.25
2023-10-16T02:07:09.999Z,102230.53
2023-10-16T02:09:40.246Z,102232.66
2023-10-16T02:12:18.456Z,102238.59
2023-10-16T02:14:47.135Z,102230.19
2023-10-16T02:17:20.741Z,102225.03
2023-10-16T02:19:48.740Z,102224.25
2023-10-16T02:22:18.306Z,102217.75
2023-10-16T02:24:48.248Z,102214.59
2023-10-16T02:27:15.813Z,102223.59
2023-10-16T02:29:50.679Z,102218.81
2023-10-16T02:32:17.581Z,102215.50
2023-10-16T02:34:44.262Z,102216.03
2023-10-16T02:37:16.263Z,102219.94
2023-10-16T02:39:51.513Z,102219.25
2023-10-16T02:42:18.744Z,102226.06
2023-10-16T02:44:46.794Z,102217.97
2023-10-16T02:47:23.142Z,102210.75
2023-10-16T02:49:50.286Z,102216.03
2023-10-16T02:52:20.803Z,102216.25
2023-10-16T02:54:48.438Z,102220.78
2023-10-16T02:57:16.071Z,102218.53
2023-10-16T02:59:44.624Z,102221.50
2023-10-16T03:02:24.176Z,102219.31
2023-10-16T03:04:55.815Z,102212.28
2023-10-16T03:07:24.106Z,102212.91
2023-10-16T03:09:52.118Z,102209.91
2023-10-16T03:12:21.252Z,102210.72
2023-10-16T03:15:09.163Z,102209.38
2023-10-16T03:17:36.307Z,102212.56
2023-10-16T03:20:10.129Z,102209.16
2023-10-16T03:22:36.683Z,102208.75
2023-10-16T03:25:13.515Z,102206.75
2023-10-16T03:27:43.672Z,102205.84
2023-10-16T03:30:11.184Z,102205.94
2023-10-16T03:32:38.054Z,102204.66
2023-10-16T03:35:08.458Z,102204.25
2023-10-16T03:37:36.587Z,102201.59
2023-10-16T03:40:13.089Z,102203.03
2023-10-16T03:42:41.450Z,102197.75
2023-10-16T03:45:09.377Z,102200.34
2023-10-16T03:47:36.228Z,102202.94
2023-10-16T03:50:04.769Z,102203.84
2023-10-16T03:52:31.426Z,102198.69
2023-10-16T03:54:58.124Z,102205.63
2023-10-16T03:57:25.072Z,102207.88
2023-10-16T03:59:52.847Z,102194.25
2023-10-16T04:02:24.136Z,102195.88
2023-10-16T04:04:55.393Z,102196.31
2023-10-16T04:07:25.175Z,102191.97
2023-10-16T04:09:51.802Z,102195.03
2023-10-16T04:12:21.892Z,102192.06
2023-10-16T04:14:56.235Z,102202.00
2023-10-16T04:17:34.042Z,102196.69
2023-10-16T04:20:01.244Z,102188.22
2023-10-16T04:22:38.642Z,102188.84
2023-10-16T04:25:19.029Z,102185.28
2023-10-16T04:27:46.103Z,102184.81
2023-10-16T04:30:21.691Z,102191.31
2023-10-16T04:32:57.818Z,102191.97
2023-10-16T04:35:33.576Z,102185.06
2023-10-16T04:38:19.080Z,102188.56
2023-10-16T04:41:10.665Z,102180.97
2023-10-16T04:43:52.768Z,102185.56
2023-10-16T04:46:24.655Z,102178.13
2023-10-16T04:48:55.756Z,102182.66
2023-10-16T04:54:17.672Z,102169.94
2023-10-16T04:57:07.584Z,102180.81
2023-10-16T05:00:01.188Z,102172.94
2023-10-16T05:02:57.334Z,102167.66
2023-10-16T05:05:42.870Z,102162.41
2023-10-16T05:08:28.432Z,102163.84
2023-10-16T05:11:14.456Z,102154.34
2023-10-16T05:13:43.679Z,102154.97
2023-10-16T05:16:29.055Z,102152.28
2023-10-16T05:19:05.341Z,102153.91
2023-10-16T05:21:53.294Z,102150.41
2023-10-16T05:24:39.253Z,102155.19
2023-10-16T05:27:24.762Z,102150.66
2023-10-16T05:30:09.926Z,102150.94
2023-10-16T05:32:55.462Z,102147.31
2023-10-16T05:35:40.770Z,102139.66
2023-10-16T05:38:26.058Z,102139.88
2023-10-16T05:41:23.872Z,102145.25
2023-10-16T05:44:09.780Z,102149.59
2023-10-16T05:46:55.601Z,102153.91
2023-10-16T05:49:41.090Z,102148.03
2023-10-16T05:52:26.938Z,102147.94
2023-10-16T05:55:12.763Z,102146.91
2023-10-16T05:57:58.075Z,102147.72
2023-10-16T06:00:43.336Z,102147.53
2023-10-16T06:03:30.399Z,102148.56
2023-10-16T06:06:16.098Z,102143.19
2023-10-16T06:09:01.378Z,102150.00
2023-10-16T06:11:46.765Z,102154.88
2023-10-16T06:14:16.372Z,102153.53
2023-10-16T06:16:47.366Z,102161.94
2023-10-16T06:19:21.284Z,102157.25
2023-10-16T06:22:10.004Z,102155.00
2023-10-16T06:24:37.298Z,102150.84
2023-10-16T06:27:12.173Z,102154.78
2023-10-16T06:29:52.648Z,102146.50
2023-10-16T06:32:37.091Z,102158.91
2023-10-16T06:35:08.252Z,102160.25
2023-10-16T06:37:35.057Z,102165.50
2023-10-16T06:40:02.753Z,102167.06
2023-10-16T06:42:30.763Z,102170.97
2023-10-16T06:45:11.248Z,102169.72
2023-10-16T06:47:38.470Z,102170.13
2023-10-16T06:50:45.252Z,102175.81
2023-10-16T06:53:12.204Z,102171.13
2023-10-16T06:55:39.031Z,102175.25
2023-10-16T06:58:09.681Z,102172.78
2023-10-16T07:00:40.141Z,102174.91
2023-10-16T07:03:14.054Z,102175.34
2023-10-16T07:05:44.921Z,102169.09
2023-10-16T07:08:20.403Z,102174.69
2023-10-16T07:11:04.820Z,102177.66
2023-10-16T07:13:39.944Z,102180.69
2023-10-16T07:16:08.394Z,102183.53
2023-10-16T07:18:36.697Z,102184.72
2023-10-16T07:21:07.077Z,102181.94
2023-10-16T07:23:37.986Z,102183.97
2023-10-16T07:26:07.596Z,102174.91
2023-10-16T07:28:34.288Z,102178.75
2023-10-16T07:31:03.438Z,102168.75
2023-10-16T07:33:30.726Z,102160.59
2023-10-16T07:36:00.246Z,102168.41
2023-10-16T07:38:28.577Z,102163.84
2023-10-16T07:41:00.502Z,102170.19
2023-10-16T07:43:29.810Z,102163.25
2023-10-16T07:46:13.016Z,102167.84
2023-10-16T07:48:53.526Z,102172.69
2023-10-16T07:51:27.762Z,102164.69
2023-10-16T07:53:58.113Z,102168.22
2023-10-16T07:56:25.229Z,102162.41
2023-10-16T07:58:57.470Z,102169.25
2023-10-16T08:01:37.640Z,102165.81
2023-10-16T08:04:08.720Z,102165.91
2023-10-16T08:06:40.449Z,102170.50
2023-10-16T08:09:25.900Z,102164.69
2023-10-16T08:12:21.460Z,102165.75
2023-10-16T08:14:52.330Z,102168.16
2023-10-16T08:17:24.970Z,102165.47
2023-10-16T08:19:52.208Z,102164.72
2023-10-16T08:22:18.917Z,102172.97
2023-10-16T08:25:03.254Z,102166.31
2023-10-16T08:27:39.805Z,102161.56
2023-10-16T08:30:34.879Z,102161.13
2023-10-16T08:33:09.204Z,102161.78
2023-10-16T08:35:39.775Z,102150.75
2023-10-16T08:38:39.596Z,102157.28
2023-10-16T08:41:15.564Z,102159.66
2023-10-16T08:43:55.933Z,102156.00
2023-10-16T08:46:32.229Z,102156.59
2023-10-16T08:49:04.258Z,102156.25
2023-10-16T08:51:31.952Z,102161.31
2023-10-16T08:54:03.423Z,102160.56
2023-10-16T08:56:30.810Z,102164.69
2023-10-16T08:59:00.113Z,102163.88
2023-10-16T09:01:29.569Z,102167.44
2023-10-16T09:04:03.013Z,102162.22
2023-10-16T09:06:34.765Z,102162.25
2023-10-16T09:09:02.108Z,102158.38
2023-10-16T09:11:31.076Z,102164.84
2023-10-16T09:14:00.956Z,102164.69
2023-10-16T09:16:32.218Z,102163.59
2023-10-16T09:19:00.150Z,102160.16
2023-10-16T09:21:31.598Z,102159.13
2023-10-16T09:24:01.802Z,102152.22
2023-10-16T09:26:33.819Z,102159.28
2023-10-16T09:32:22.021Z,102138.22
2023-10-16T09:34:53.138Z,102128.09
2023-10-16T09:37:25.471Z,102157.22
2023-10-16T09:39:56.224Z,102157.47
2023-10-16T09:42:26.037Z,102161.00
2023-10-16T09:44:58.113Z,102158.78
2023-10-16T09:47:29.544Z,102162.00
2023-10-16T09:49:59.540Z,102146.81
2023-10-16T09:52:32.619Z,102154.44
2023-10-16T09:55:01.021Z,102151.63
2023-10-16T09:57:32.281Z,102153.25
2023-10-16T10:00:23.069Z,102150.22
2023-10-16T10:02:55.556Z,102150.97
2023-10-16T10:05:35.720Z,102145.94
2023-10-16T10:08:18.070Z,102143.97
2023-10-16T10:11:18.209Z,102147.03
2023-10-16T10:14:11.581Z,102147.38
2023-10-16T10:16:40.616Z,102139.69
2023-10-16T10:19:33.271Z,102147.34
2023-10-16T10:22:18.750Z,102148.53
2023-10-16T10:25:14.734Z,102143.97
2023-10-16T10:27:49.792Z,102145.66
2023-10-16T10:30:27.838Z,102143.03
2023-10-16T10:32:57.202Z,102152.03
2023-10-16T10:35:31.762Z,102147.38
2023-10-16T10:38:08.481Z,102141.34
2023-10-16T10:40:38.553Z,102147.78
2023-10-16T10:43:05.631Z,102133.75
2023-10-16T10:45:35.609Z,102149.44
2023-10-16T10:48:12.802Z,102141.06
2023-10-16T10:50:40.608Z,102143.69
2023-10-16T10:53:15.837Z,102133.94
2023-10-16T10:56:08.553Z,102130.53
2023-10-16T10:58:39.219Z,102126.53
2023-10-16T11:01:26.304Z,102130.72
2023-10-16T11:03:56.388Z,102126.34
2023-10-16T11:06:41.837Z,102125.84
2023-10-16T11:09:14.473Z,102130.75
2023-10-16T11:11:41.692Z,102128.47
2023-10-16T11:14:09.186Z,102123.94
2023-10-16T11:16:50.980Z,102119.22
2023-10-16T11:19:31.177Z,102117.78
2023-10-16T11:22:01.294Z,102112.03
2023-10-16T11:24:28.348Z,102111.25
2023-10-16T11:26:59.531Z,102112.56
2023-10-16T11:29:35.551Z,102111.25
2023-10-16T11:32:08.283Z,102111.06
2023-10-16T11:34:50.016Z,102104.84
2023-10-16T11:37:20.205Z,102108.94
2023-10-16T11:39:48.645Z,102100.56
2023-10-16T11:42:15.642Z,102089.25
2023-10-16T11:44:43.562Z,102089.56
2023-10-16T11:47:17.676Z,102089.06
2023-10-16T11:49:54.654Z,102086.59
2023-10-16T11:52:23.624Z,102080.72
2023-10-16T11:54:57.619Z,102078.09
2023-10-16T11:57:25.864Z,102075.81
2023-10-16T11:59:52.561Z,102078.44
2023-10-16T12:02:21.079Z,102076.31
2023-10-16T12:04:51.274Z,102072.38
2023-10-16T12:07:18.766Z,102073.19
2023-10-16T12:09:53.647Z,102072.19
2023-10-16T12:12:21.070Z,102069.72
2023-10-16T12:14:51.901Z,102069.38
2023-10-16T12:17:21.004Z,102062.50
2023-10-16T12:19:48.937Z,102057.41
2023-10-16T12:22:16.829Z,102050.34
2023-10-16T12:24:44.942Z,102054.38
2023-10-16T12:27:16.767Z,102048.84
2023-10-16T12:29:45.565Z,102053.59
2023-10-16T12:32:14.269Z,102051.16
2023-10-16T12:34:42.393Z,102038.06
2023-10-16T12:37:09.885Z,102052.31
2023-10-16T12:39:46.573Z,102027.84
2023-10-16T12:42:14.781Z,102032.22
2023-10-16T12:44:42.088Z,102029.88
2023-10-16T12:47:08.982Z,102026.72
2023-10-16T12:49:35.943Z,102028.41
2023-10-16T12:52:02.741Z,102027.69
2023-10-16T12:54:29.701Z,102022.59
2023-10-16T12:56:58.784Z,102020.34
2023-10-16T12:59:28.458Z,102020.19
2023-10-16T13:01:55.228Z,102023.41
2023-10-16T13:04:21.987Z,102022.00
2023-10-16T13:06:48.811Z,102005.91
2023-10-16T13:09:19.309Z,102026.91
2023-10-16T13:11:47.496Z,102022.56
2023-10-16T13:14:14.342Z,102024.72
2023-10-16T13:16:41.917Z,102013.91
2023-10-16T13:19:11.559Z,102016.53
2023-10-16T13:21:42.463Z,102024.41
2023-10-16T13:24:14.224Z,102014.53
2023-10-16T13:26:41.686Z,102015.25
2023-10-16T13:29:11.923Z,102020.06
2023-10-16T13:31:43.184Z,102006.41
2023-10-16T13:34:14.789Z,102010.47
2023-10-16T13:36:57.856Z,102011.97
2023-10-16T13:39:32.249Z,102022.50
2023-10-16T13:42:00.714Z,102016.78
2023-10-16T13:44:27.745Z,102016.41
2023-10-16T13:46:54.761Z,102013.78
2023-10-16T13:49:23.581Z,102001.66
2023-10-16T13:51:53.722Z,102003.28
2023-10-16T13:54:20.440Z,102003.72
2023-10-16T13:56:47.876Z,102013.53
2023-10-16T13:59:18.320Z,101996.34
2023-10-16T14:01:45.109Z,102004.19
2023-10-16T14:04:16.858Z,102000.66
2023-10-16T14:06:53.615Z,101995.09
2023-10-16T14:09:29.874Z,101980.06
2023-10-16T14:12:00.444Z,101989.22
2023-10-16T14:14:29.661Z,101974.66
2023-10-16T14:17:17.769Z,101979.78
2023-10-16T14:19:48.968Z,101984.66
2023-10-16T14:22:17.376Z,101978.75
2023-10-16T14:24:44.570Z,101980.41
2023-10-16T14:27:19.254Z,101977.13
2023-10-16T14:29:50.128Z,101973.50
2023-10-16T14:32:16.908Z,101976.78
2023-10-16T14:34:44.125Z,101978.72
2023-10-16T14:37:10.906Z,101960.38
2023-10-16T14:39:41.222Z,101969.88
2023-10-16T14:42:08.302Z,101948.06
2023-10-16T14:44:35.475Z,101962.66
2023-10-16T14:47:05.704Z,101964.00
2023-10-16T14:49:36.295Z,101953.66
2023-10-16T14:52:04.226Z,101952.97
2023-10-16T14:54:31.277Z,101946.59
2023-10-16T14:57:02.715Z,101953.19
2023-10-16T14:59:33.567Z,101950.25
2023-10-16T15:02:01.822Z,101953.22
2023-10-16T15:04:29.881Z,101938.16
2023-10-16T15:07:06.288Z,101946.03
2023-10-16T15:09:33.792Z,101947.66
2023-10-16T15:12:01.081Z,101943.38
2023-10-16T15:14:30.412Z,101942.06
2023-10-16T15:16:57.744Z,101942.44
2023-10-16T15:19:28.594Z,101937.34
2023-10-16T15:21:55.885Z,101944.38
2023-10-16T15:24:22.908Z,101941.09
2023-10-16T15:26:49.645Z,101945.19
2023-10-16T15:29:17.968Z,101939.44
2023-10-16T15:31:47.043Z,101943.72
2023-10-16T15:34:14.120Z,101938.47
2023-10-16T15:36:40.918Z,101945.31
2023-10-16T15:39:14.884Z,101947.13
2023-10-16T15:41:46.114Z,101951.19
2023-10-16T15:44:13.110Z,101944.47
2023-10-16T15:46:39.872Z,101951.84
2023-10-16T15:49:08.196Z,101942.81
2023-10-16T15:51:34.962Z,101935.09
2023-10-16T15:54:02.038Z,101948.19
2023-10-16T15:56:31.008Z,101940.34
2023-10-16T15:58:58.633Z,101939.72
2023-10-16T16:01:31.277Z,101942.78
2023-10-16T16:04:05.136Z,101936.66
2023-10-16T16:06:34.574Z,101935.69
2023-10-16T16:09:20.865Z,101939.59
2023-10-16T16:11:47.915Z,101939.69
2023-10-16T16:14:17.974Z,101944.13
2023-10-16T16:16:46.380Z,101941.78
2023-10-16T16:19:14.334Z,101933.75
2023-10-16T16:21:41.114Z,101937.84
2023-10-16T16:24:09.651Z,101940.97
2023-10-16T16:26:37.265Z,101934.78
2023-10-16T16:29:04.915Z,101942.25
2023-10-16T16:31:32.457Z,101943.19
2023-10-16T16:33:59.270Z,101941.75
2023-10-16T16:36:26.263Z,101947.44
2023-10-16T16:39:00.192Z,101938.72
2023-10-16T16:41:28.156Z,101941.41
2023-10-16T16:43:55.668Z,101940.81
2023-10-16T16:46:22.921Z,101941.50
2023-10-16T16:48:49.678Z,101924.63
2023-10-16T16:51:16.866Z,101925.81
2023-10-16T16:53:43.607Z,101929.97
2023-10-16T16:56:12.212Z,101932.22
2023-10-16T16:58:39.701Z,101930.34
2023-10-16T17:01:06.701Z,101936.63
2023-10-16T17:03:33.604Z,101936.00
2023-10-16T17:06:00.367Z,101942.09
2023-10-16T17:08:27.175Z,101951.03
2023-10-16T17:10:54.311Z,101950.78
2023-10-16T17:13:21.208Z,101947.63
2023-10-16T17:15:48.053Z,101944.22
2023-10-16T17:18:16.960Z,101952.53
2023-10-16T17:20:43.756Z,101942.81
2023-10-16T17:23:10.468Z,101949.16
2023-10-16T17:25:37.322Z,101943.53
2023-10-16T17:28:04.737Z,101949.50
2023-10-16T17:30:32.315Z,101937.16
2023-10-16T17:32:59.876Z,101951.41
2023-10-16T17:35:37.149Z,101954.31
2023-10-16T17:38:04.311Z,101948.44
2023-10-16T17:40:31.029Z,101963.78
2023-10-16T17:42:57.818Z,101960.38
2023-10-16T17:45:24.743Z,101971.56
2023-10-16T17:47:52.826Z,101974.06
2023-10-16T17:50:23.301Z,101963.84
2023-10-16T17:52:51.393Z,101963.84
2023-10-16T17:55:21.610Z,101961.09
2023-10-16T17:57:48.637Z,101947.69
2023-10-16T18:00:16.669Z,101945.88
2023-10-16T18:02:48.511Z,101944.41
2023-10-16T18:05:17.477Z,101941.53
2023-10-16T18:07:46.099Z,101940.88
2023-10-16T18:10:17.748Z,101933.88
2023-10-16T18:12:46.377Z,101954.28
2023-10-16T18:15:15.627Z,101943.03
2023-10-16T18:17:43.694Z,101937.53
2023-10-16T18:20:11.286Z,101938.13
2023-10-16T18:22:39.873Z,101931.28
2023-10-16T18:25:07.282Z,101950.59
2023-10-16T18:27:35.460Z,101952.09
2023-10-16T18:30:03.233Z,101936.34
2023-10-16T18:32:30.388Z,101951.28
2023-10-16T18:34:58.714Z,101953.47
2023-10-16T18:37:25.520Z,101948.00
2023-10-16T18:39:52.549Z,101948.56
2023-10-16T18:42:21.118Z,101945.13
2023-10-16T18:44:51.109Z,101956.09
2023-10-16T18:47:18.685Z,101950.31
2023-10-16T18:49:45.872Z,101948.81
2023-10-16T18:52:12.770Z,101922.38
2023-10-16T18:54:39.522Z,101919.19
2023-10-16T18:57:11.184Z,101933.19
2023-10-16T18:59:39.900Z,101938.38
2023-10-16T19:02:06.848Z,101942.81
2023-10-16T19:04:33.775Z,101918.09
2023-10-16T19:07:00.649Z,101931.81
2023-10-16T19:09:28.530Z,101924.69
2023-10-16T19:12:01.598Z,101939.22
2023-10-16T19:14:31.472Z,101911.13
2023-10-16T19:17:05.383Z,101917.84
2023-10-16T19:19:40.440Z,101924.16
2023-10-16T19:22:12.868Z,101917.44
2023-10-16T19:24:56.118Z,101937.03
2023-10-16T19:27:33.053Z,101925.25
2023-10-16T19:30:00.213Z,101904.16
2023-10-16T19:32:31.564Z,101928.28
2023-10-16T19:35:02.579Z,101920.59
2023-10-16T19:37:29.570Z,101913.19
2023-10-16T19:39:57.025Z,101910.84
2023-10-16T19:42:26.214Z,101908.09
2023-10-16T19:44:55.983Z,101892.50
2023-10-16T19:47:26.074Z,101904.13
2023-10-16T19:49:56.165Z,101897.84
2023-10-16T19:52:26.570Z,101936.06
2023-10-16T19:55:02.250Z,101926.34
2023-10-16T19:57:29.637Z,101928.94
2023-10-16T20:00:00.759Z,101925.25
2023-10-16T20:02:29.033Z,101911.78
2023-10-16T20:04:58.048Z,101934.53
2023-10-16T20:07:26.045Z,101909.84
2023-10-16T20:09:53.775Z,101928.34
2023-10-16T20:12:23.539Z,101911.66
2023-10-16T20:14:53.687Z,101901.50
2023-10-16T20:17:20.900Z,101923.25
2023-10-16T20:19:53.530Z,101927.94
2023-10-16T20:22:24.604Z,101940.94
2023-10-16T20:24:54.688Z,101900.53
2023-10-16T20:27:25.247Z,101939.72
2023-10-16T20:29:54.216Z,101926.59
2023-10-16T20:32:46.546Z,101922.06
2023-10-16T20:35:18.546Z,101935.22
2023-10-16T20:37:46.953Z,101909.41
2023-10-16T20:40:17.742Z,101925.44
2023-10-16T20:42:46.043Z,101936.78
2023-10-16T20:45:16.392Z,101942.41
2023-10-16T20:47:47.268Z,101920.91
2023-10-16T20:50:15.171Z,101942.72
2023-10-16T20:52:45.643Z,101923.63
2023-10-16T20:55:15.242Z,101927.19
2023-10-16T20:57:43.192Z,101940.09
2023-10-16T21:00:17.693Z,101944.59
2023-10-16T21:03:08.680Z,101940.53
2023-10-16T21:05:37.097Z,101945.75
2023-10-16T21:08:10.987Z,101928.66
2023-10-16T21:10:41.107Z,101957.59
2023-10-16T21:13:08.914Z,101929.72
2023-10-16T21:15:37.340Z,101943.00
2023-10-16T21:18:07.428Z,101937.94
2023-10-16T21:20:42.424Z,101931.88
2023-10-16T21:23:09.791Z,101933.63
2023-10-16T21:25:36.959Z,101924.28
2023-10-16T21:28:10.074Z,101939.91
2023-10-16T21:30:40.507Z,101921.53
2023-10-16T21:33:07.681Z,101939.66
2023-10-16T21:35:38.660Z,101927.69
2023-10-16T21:38:08.682Z,101946.88
2023-10-16T21:40:37.636Z,101931.81
2023-10-16T21:43:07.981Z,101938.19
2023-10-16T21:45:41.357Z,101934.72
2023-10-16T21:48:09.226Z,101924.44
2023-10-16T21:50:36.510Z,101952.41
2023-10-16T21:53:04.843Z,101926.88
2023-10-16T21:55:33.805Z,101946.50
2023-10-16T21:58:13.544Z,101934.81
2023-10-16T22:00:42.864Z,101926.50
2023-10-16T22:03:15.859Z,101914.72
2023-10-16T22:09:19.757Z,101942.97
2023-10-16T22:11:51.213Z,101940.56
2023-10-16T22:14:23.084Z,101915.56
2023-10-16T22:16:54.941Z,101917.81
2023-10-16T22:19:26.058Z,101924.69
2023-10-16T22:21:54.835Z,101887.94
2023-10-16T22:24:22.743Z,101911.69
2023-10-16T22:26:50.015Z,101884.91
2023-10-16T22:29:17.248Z,101900.25
2023-10-16T22:31:45.321Z,101914.06
2023-10-16T22:34:16.252Z,101905.94
2023-10-16T22:36:43.607Z,101883.75
2023-10-16T22:39:11.335Z,101882.66
2023-10-16T22:41:40.960Z,101923.88
2023-10-16T22:44:11.298Z,101918.75
2023-10-16T22:46:38.904Z,101918.81
2023-10-16T22:49:08.711Z,101919.38
2023-10-16T22:51:38.045Z,101893.38
2023-10-16T22:54:08.957Z,101881.97
2023-10-16T22:56:37.887Z,101892.91
2023-10-16T22:59:05.092Z,101898.16
2023-10-16T23:01:33.615Z,101913.81
2023-10-16T23:04:00.834Z,101908.72
2023-10-16T23:06:34.454Z,101910.94
2023-10-16T23:09:03.199Z,101869.22
2023-10-16T23:11:30.466Z,101905.28
2023-10-16T23:13:58.199Z,101877.50
2023-10-16T23:16:28.675Z,101876.50
2023-10-16T23:18:57.331Z,101899.53
2023-10-16T23:21:27.225Z,101901.69
2023-10-16T23:23:56.852Z,101879.88
2023-10-16T23:26:24.735Z,101891.91
2023-10-16T23:28:52.611Z,101886.53
2023-10-16T23:31:25.295Z,101901.53
2023-10-16T23:34:11.268Z,101880.41
2023-10-16T23:36:39.506Z,101915.22
2023-10-16T23:39:16.198Z,101897.53
2023-10-16T23:41:47.688Z,101908.94
2023-10-16T23:44:21.885Z,101905.28
2023-10-16T23:46:57.148Z,101902.91
2023-10-16T23:49:25.602Z,101869.44
2023-10-16T23:51:57.112Z,101885.50
2023-10-16T23:54:47.818Z,101882.78
2023-10-16T23:57:44.334Z,101893.88
